Taft Beach — WBQ9253 — position and weather

sailwx.info

Track history (hours):
 
Tides and Currents Weather Stations Pressure Air Temp Water Temp Dewpoint Dewpoint Depression Visibility Wind Speed Wind Dir Waves Ship Positions

Taft Beach

Owner: DOUGLAS MARINE INC, CHESAPEAKE, VA. More information available from US FCC via Universal Licensing System and Coast Guard Vessel Documentation Center.

Last reported at 2018-Feb-18 03:29 UTC. Time now 2018-Feb-19 20:10 UTC.
Position N 36°59' W 076°27'.

; draft 0.31 m.

Type: Tug. MMSI: 367016410.

Date/timePositionNaut miles runAvg speedWind from/ knotsBaromVisibWave heightAir tempDewpointWater temp
2018-Feb-18 03:29N 36°59' W 076°27'5 8.3
2018-Feb-18 02:50N 36°57' W 076°21'3 7.5
2018-Feb-18 02:30N 36°55' W 076°20'4 7.6
2018-Feb-18 01:58N 36°51' W 076°18'2 4.3
2018-Feb-18 01:30N 36°49' W 076°17'1 2.7
2018-Feb-18 00:57N 36°50' W 076°16'1 2.3
2018-Feb-18 00:27N 36°50' W 076°15'2 4.2
2018-Feb-18 00:00N 36°51' W 076°17'0 0.7
2018-Feb-17 23:30N 36°50' W 076°18'4 7.1
2018-Feb-17 22:59N 36°53' W 076°20'1 0.1
2018-Feb-17 03:30N 36°55' W 076°20'2 2.8
2018-Feb-17 02:45N 36°53' W 076°21'0 0.1
2018-Feb-16 21:28N 36°53' W 076°21'0 0.0
2018-Feb-16 21:00N 36°53' W 076°21'0 0.0
2018-Feb-16 20:21N 36°53' W 076°21'0 0.0
2018-Feb-16 19:58N 36°53' W 076°21'0 0.0
2018-Feb-16 19:07N 36°53' W 076°21'0 0.0
2018-Feb-16 18:59N 36°53' W 076°21'3 3.8
2018-Feb-16 18:13N 36°51' W 076°18'2 0.4
2018-Feb-16 13:50N 36°50' W 076°16'0 0.6
2018-Feb-16 13:26N 36°50' W 076°17'1 1.3
2018-Feb-16 13:01N 36°51' W 076°17'4 4.3
2018-Feb-16 12:10N 36°53' W 076°21'1 2.9
2018-Feb-16 11:48N 36°52' W 076°20'2 7.2
2018-Feb-16 11:30N 36°51' W 076°18'1 0.6
2018-Feb-16 09:21N 36°50' W 076°16'1 3.0
2018-Feb-16 08:59N 36°51' W 076°18'6 5.5
2018-Feb-16 07:58N 36°56' W 076°20'1 0.0
2018-Feb-14 21:55N 36°57' W 076°21'5 6.3
2018-Feb-14 21:10N 36°52' W 076°20'1 6.2
2018-Feb-14 20:58N 36°51' W 076°19'2 0.5
2018-Feb-14 16:12N 36°50' W 076°16'0 0.0
2018-Feb-14 15:59N 36°50' W 076°16'0 0.0
2018-Feb-14 15:29N 36°50' W 076°16'0 0.0
2018-Feb-14 15:00N 36°50' W 076°16'0 0.0
2018-Feb-14 14:27N 36°50' W 076°16'0 0.0
2018-Feb-14 13:54N 36°50' W 076°16'1 1.7
2018-Feb-14 13:29N 36°50' W 076°15'1 0.0
2018-Feb-13 23:25N 36°50' W 076°16'0 0.1
2018-Feb-13 19:31N 36°50' W 076°16'0 0.1
2018-Feb-13 18:48N 36°50' W 076°16'1 1.9
2018-Feb-13 18:24N 36°50' W 076°17'0 0.8
2018-Feb-13 17:50N 36°50' W 076°16'1 4.0
2018-Feb-13 17:30N 36°50' W 076°18'1 1.2
2018-Feb-13 17:00N 36°49' W 076°17'0 0.0
2018-Feb-13 16:30N 36°49' W 076°17'0 0.0
2018-Feb-13 16:00N 36°49' W 076°17'0 0.0
2018-Feb-13 15:30N 36°49' W 076°17'0 0.0
2018-Feb-13 15:00N 36°49' W 076°17'0 0.0
2018-Feb-13 14:30N 36°49' W 076°17'0 0.0
2018-Feb-13 14:00N 36°49' W 076°17'0 0.0
2018-Feb-13 13:30N 36°49' W 076°17'0 0.0
2018-Feb-13 13:00N 36°49' W 076°17'0 0.0
2018-Feb-13 12:30N 36°49' W 076°17'0 0.0
2018-Feb-13 12:00N 36°49' W 076°17'0 0.0
2018-Feb-13 11:30N 36°49' W 076°17'0 0.0
2018-Feb-13 11:00N 36°49' W 076°17'0 0.0
2018-Feb-13 10:30N 36°49' W 076°17'0 0.0
2018-Feb-13 10:00N 36°49' W 076°17'0 0.0
2018-Feb-13 09:30N 36°49' W 076°17'0 0.0
2018-Feb-13 09:00N 36°49' W 076°17'0 0.0
2018-Feb-13 08:30N 36°49' W 076°17'0 0.0
2018-Feb-13 08:00N 36°49' W 076°17'0 0.0
2018-Feb-13 07:30N 36°49' W 076°17'0 0.0
2018-Feb-13 07:00N 36°49' W 076°17'0 0.0
2018-Feb-13 06:30N 36°49' W 076°17'0 0.0
2018-Feb-13 06:00N 36°49' W 076°17'0 0.0
2018-Feb-13 05:30N 36°49' W 076°17'0 0.0
2018-Feb-13 05:00N 36°49' W 076°17'0 0.0
2018-Feb-13 04:30N 36°49' W 076°17'0 0.0
2018-Feb-13 04:00N 36°49' W 076°17'0 0.0
2018-Feb-13 03:30N 36°49' W 076°17'0 0.0
2018-Feb-13 03:00N 36°49' W 076°17'0 0.0
2018-Feb-13 02:30N 36°49' W 076°17'0 0.0
2018-Feb-13 02:00N 36°49' W 076°17'0 0.0
2018-Feb-13 01:30N 36°49' W 076°17'0 0.0
2018-Feb-13 01:00N 36°49' W 076°17'0 0.0
2018-Feb-13 00:30N 36°49' W 076°17'0 0.0
2018-Feb-12 23:59N 36°49' W 076°17'0 0.0
2018-Feb-12 23:30N 36°49' W 076°17'0 0.0
2018-Feb-12 23:00N 36°49' W 076°17'0 0.0
2018-Feb-12 22:30N 36°49' W 076°17'0 0.0
2018-Feb-12 22:00N 36°49' W 076°17'0 0.0
2018-Feb-12 21:30N 36°49' W 076°17'0 0.0
2018-Feb-12 21:00N 36°49' W 076°17'0 0.0
2018-Feb-12 20:30N 36°49' W 076°17'0 0.0
2018-Feb-12 20:00N 36°49' W 076°17'0 0.0
2018-Feb-12 19:30N 36°49' W 076°17'0 0.0
2018-Feb-12 19:00N 36°49' W 076°17'0 0.0
2018-Feb-12 18:30N 36°49' W 076°17'0 0.0
2018-Feb-12 18:00N 36°49' W 076°17'0 0.0
2018-Feb-12 17:30N 36°49' W 076°17'0 0.0
2018-Feb-12 17:00N 36°49' W 076°17'0 0.0
2018-Feb-12 16:30N 36°49' W 076°17'0 0.0
2018-Feb-12 16:00N 36°49' W 076°17'0 0.0
2018-Feb-12 15:30N 36°49' W 076°17'0 0.0
2018-Feb-12 15:00N 36°49' W 076°17'0 0.0
2018-Feb-12 14:30N 36°49' W 076°17'0 0.0
2018-Feb-12 14:00N 36°49' W 076°17'0 0.0
2018-Feb-12 13:28N 36°49' W 076°17'0 0.0
2018-Feb-12 12:59N 36°49' W 076°17'0 0.0
2018-Feb-12 12:30N 36°49' W 076°17'0 0.0
2018-Feb-12 12:00N 36°49' W 076°17'0 0.0
2018-Feb-12 11:30N 36°49' W 076°17'0 0.0
2018-Feb-12 11:00N 36°49' W 076°17'0 0.0
2018-Feb-12 10:30N 36°49' W 076°17'0 0.0
2018-Feb-12 10:00N 36°49' W 076°17'0 0.0
2018-Feb-12 09:30N 36°49' W 076°17'0 0.0
2018-Feb-12 09:01N 36°49' W 076°17'0 0.0
2018-Feb-12 08:30N 36°49' W 076°17'0 0.0
2018-Feb-12 08:00N 36°49' W 076°17'0 0.0
2018-Feb-12 07:30N 36°49' W 076°17'0 0.0
2018-Feb-12 07:00N 36°49' W 076°17'0 0.0
2018-Feb-12 06:30N 36°49' W 076°17'0 0.0
2018-Feb-12 06:00N 36°49' W 076°17'0 0.0
2018-Feb-12 05:30N 36°49' W 076°17'0 0.0
2018-Feb-12 05:00N 36°49' W 076°17'0 0.0
2018-Feb-12 04:30N 36°49' W 076°17'0 0.0
2018-Feb-12 04:00N 36°49' W 076°17'0 0.0
2018-Feb-12 03:30N 36°49' W 076°17'0 0.0
2018-Feb-12 03:01N 36°49' W 076°17'0 0.0
2018-Feb-12 02:30N 36°49' W 076°17'0 0.0
2018-Feb-12 02:00N 36°49' W 076°17'0 0.0
2018-Feb-12 01:30N 36°49' W 076°17'0 0.0
2018-Feb-12 01:00N 36°49' W 076°17'2 2.7
2018-Feb-12 00:26N 36°50' W 076°16'0 0.0
2018-Feb-11 20:23N 36°50' W 076°16'3 6.6
2018-Feb-11 19:57N 36°52' W 076°19'3 4.3
2018-Feb-11 19:12N 36°55' W 076°20'1 2.0
2018-Feb-11 18:57N 36°54' W 076°20'0 0.2
2018-Feb-11 18:30N 36°54' W 076°20'3 5.2
2018-Feb-11 17:52N 36°51' W 076°19'2 2.0
2018-Feb-11 16:47N 36°50' W 076°16'0 0.3
2018-Feb-11 16:30N 36°50' W 076°16'0 0.0
2018-Feb-11 00:15N 36°50' W 076°16'0 0.3
2018-Feb-10 23:31N 36°50' W 076°16'0 4.3
2018-Feb-10 23:28N 36°50' W 076°16'1 0.8
2018-Feb-10 22:46N 36°50' W 076°17'0 0.2
2018-Feb-10 22:26N 36°50' W 076°17'2 3.6
2018-Feb-10 22:00N 36°49' W 076°17'2 4.8
2018-Feb-10 21:30N 36°47' W 076°18'1 1.1
2018-Feb-10 21:00N 36°46' W 076°18'0 0.0
2018-Feb-10 20:30N 36°46' W 076°18'0 0.1
2018-Feb-10 20:00N 36°46' W 076°18'0 0.0
2018-Feb-10 19:30N 36°46' W 076°18'0 0.0
2018-Feb-10 19:00N 36°46' W 076°18'0 0.0
2018-Feb-10 18:30N 36°46' W 076°18'0 0.0
2018-Feb-10 18:00N 36°46' W 076°18'0 0.0
2018-Feb-10 17:30N 36°46' W 076°18'0 0.0
2018-Feb-10 17:00N 36°46' W 076°18'0 0.0
2018-Feb-10 16:30N 36°46' W 076°18'0 0.0
2018-Feb-10 16:00N 36°46' W 076°18'0 0.0
2018-Feb-10 15:30N 36°46' W 076°18'0 0.0
2018-Feb-10 15:00N 36°46' W 076°18'0 0.0
2018-Feb-10 14:30N 36°46' W 076°18'0 0.0
2018-Feb-10 14:00N 36°46' W 076°18'0 0.0
2018-Feb-10 13:30N 36°46' W 076°18'0 0.0
2018-Feb-10 13:00N 36°46' W 076°18'0 0.0
2018-Feb-10 12:30N 36°46' W 076°18'0 0.7
2018-Feb-10 12:00N 36°46' W 076°18'0 0.7
2018-Feb-10 11:30N 36°46' W 076°18'0 0.2
2018-Feb-10 11:00N 36°46' W 076°18'1 1.1
2018-Feb-10 10:30N 36°47' W 076°18'2 3.6
2018-Feb-10 10:00N 36°48' W 076°17'3 5.4
2018-Feb-10 09:29N 36°51' W 076°18'5 5.6
2018-Feb-10 08:37N 36°56' W 076°20'8 0.2
2018-Feb-08 20:00N 36°48' W 076°17'2 1.5
2018-Feb-08 18:30N 36°46' W 076°18'0 0.0
2018-Feb-08 18:00N 36°46' W 076°18'0 0.0
2018-Feb-08 17:30N 36°46' W 076°18'0 0.0
2018-Feb-08 17:00N 36°46' W 076°18'0 0.0
2018-Feb-08 16:30N 36°46' W 076°18'0 0.0
2018-Feb-08 16:00N 36°46' W 076°18'0 0.0
2018-Feb-08 15:30N 36°46' W 076°18'0 0.0
2018-Feb-08 15:00N 36°46' W 076°18'0 0.0
2018-Feb-08 14:30N 36°46' W 076°18'0 0.0
2018-Feb-08 14:00N 36°46' W 076°18'0 0.0
2018-Feb-08 13:30N 36°46' W 076°18'0 0.0
2018-Feb-08 13:00N 36°46' W 076°18'0 0.0
2018-Feb-08 12:30N 36°46' W 076°18'0 0.0
2018-Feb-08 12:00N 36°46' W 076°18'0 0.0
2018-Feb-08 11:30N 36°46' W 076°18'0 0.0
2018-Feb-08 11:00N 36°46' W 076°18'0 0.2
2018-Feb-08 10:00N 36°46' W 076°18'1 2.3
2018-Feb-08 09:30N 36°47' W 076°18'2 4.2
2018-Feb-08 09:00N 36°49' W 076°17'  
Track history (hours):
 
Tides and Currents Weather Stations Pressure Air Temp Water Temp Dewpoint Dewpoint Depression Visibility Wind Speed Wind Dir Waves Ship Positions

Taft Beach

Owner: DOUGLAS MARINE INC, CHESAPEAKE, VA. More information available from US FCC via Universal Licensing System and Coast Guard Vessel Documentation Center.

Last reported at 2018-Feb-18 03:29 UTC. Time now 2018-Feb-19 20:10 UTC.
Position N 36°59' W 076°27'.

; draft 0.31 m.

Type: Tug. MMSI: 367016410.

Date/timePositionNaut miles runAvg speedWind from/ knotsBaromVisibWave heightAir tempDewpointWater temp
2018-Feb-18 03:29N 36°59' W 076°27'5 8.3
2018-Feb-18 02:50N 36°57' W 076°21'3 7.5
2018-Feb-18 02:30N 36°55' W 076°20'4 7.6
2018-Feb-18 01:58N 36°51' W 076°18'2 4.3
2018-Feb-18 01:30N 36°49' W 076°17'1 2.7
2018-Feb-18 00:57N 36°50' W 076°16'1 2.3
2018-Feb-18 00:27N 36°50' W 076°15'2 4.2
2018-Feb-18 00:00N 36°51' W 076°17'0 0.7
2018-Feb-17 23:30N 36°50' W 076°18'4 7.1
2018-Feb-17 22:59N 36°53' W 076°20'1 0.1
2018-Feb-17 03:30N 36°55' W 076°20'2 2.8
2018-Feb-17 02:45N 36°53' W 076°21'0 0.1
2018-Feb-16 21:28N 36°53' W 076°21'0 0.0
2018-Feb-16 21:00N 36°53' W 076°21'0 0.0
2018-Feb-16 20:21N 36°53' W 076°21'0 0.0
2018-Feb-16 19:58N 36°53' W 076°21'0 0.0
2018-Feb-16 19:07N 36°53' W 076°21'0 0.0
2018-Feb-16 18:59N 36°53' W 076°21'3 3.8
2018-Feb-16 18:13N 36°51' W 076°18'2 0.4
2018-Feb-16 13:50N 36°50' W 076°16'0 0.6
2018-Feb-16 13:26N 36°50' W 076°17'1 1.3
2018-Feb-16 13:01N 36°51' W 076°17'4 4.3
2018-Feb-16 12:10N 36°53' W 076°21'1 2.9
2018-Feb-16 11:48N 36°52' W 076°20'2 7.2
2018-Feb-16 11:30N 36°51' W 076°18'1 0.6
2018-Feb-16 09:21N 36°50' W 076°16'1 3.0
2018-Feb-16 08:59N 36°51' W 076°18'6 5.5
2018-Feb-16 07:58N 36°56' W 076°20'1 0.0
2018-Feb-14 21:55N 36°57' W 076°21'5 6.3
2018-Feb-14 21:10N 36°52' W 076°20'1 6.2
2018-Feb-14 20:58N 36°51' W 076°19'2 0.5
2018-Feb-14 16:12N 36°50' W 076°16'0 0.0
2018-Feb-14 15:59N 36°50' W 076°16'0 0.0
2018-Feb-14 15:29N 36°50' W 076°16'0 0.0
2018-Feb-14 15:00N 36°50' W 076°16'0 0.0
2018-Feb-14 14:27N 36°50' W 076°16'0 0.0
2018-Feb-14 13:54N 36°50' W 076°16'1 1.7
2018-Feb-14 13:29N 36°50' W 076°15'1 0.0
2018-Feb-13 23:25N 36°50' W 076°16'0 0.1
2018-Feb-13 19:31N 36°50' W 076°16'0 0.1
2018-Feb-13 18:48N 36°50' W 076°16'1 1.9
2018-Feb-13 18:24N 36°50' W 076°17'0 0.8
2018-Feb-13 17:50N 36°50' W 076°16'1 4.0
2018-Feb-13 17:30N 36°50' W 076°18'1 1.2
2018-Feb-13 17:00N 36°49' W 076°17'0 0.0
2018-Feb-13 16:30N 36°49' W 076°17'0 0.0
2018-Feb-13 16:00N 36°49' W 076°17'0 0.0
2018-Feb-13 15:30N 36°49' W 076°17'0 0.0
2018-Feb-13 15:00N 36°49' W 076°17'0 0.0
2018-Feb-13 14:30N 36°49' W 076°17'0 0.0
2018-Feb-13 14:00N 36°49' W 076°17'0 0.0
2018-Feb-13 13:30N 36°49' W 076°17'0 0.0
2018-Feb-13 13:00N 36°49' W 076°17'0 0.0
2018-Feb-13 12:30N 36°49' W 076°17'0 0.0
2018-Feb-13 12:00N 36°49' W 076°17'0 0.0
2018-Feb-13 11:30N 36°49' W 076°17'0 0.0
2018-Feb-13 11:00N 36°49' W 076°17'0 0.0
2018-Feb-13 10:30N 36°49' W 076°17'0 0.0
2018-Feb-13 10:00N 36°49' W 076°17'0 0.0
2018-Feb-13 09:30N 36°49' W 076°17'0 0.0
2018-Feb-13 09:00N 36°49' W 076°17'0 0.0
2018-Feb-13 08:30N 36°49' W 076°17'0 0.0
2018-Feb-13 08:00N 36°49' W 076°17'0 0.0
2018-Feb-13 07:30N 36°49' W 076°17'0 0.0
2018-Feb-13 07:00N 36°49' W 076°17'0 0.0
2018-Feb-13 06:30N 36°49' W 076°17'0 0.0
2018-Feb-13 06:00N 36°49' W 076°17'0 0.0
2018-Feb-13 05:30N 36°49' W 076°17'0 0.0
2018-Feb-13 05:00N 36°49' W 076°17'0 0.0
2018-Feb-13 04:30N 36°49' W 076°17'0 0.0
2018-Feb-13 04:00N 36°49' W 076°17'0 0.0
2018-Feb-13 03:30N 36°49' W 076°17'0 0.0
2018-Feb-13 03:00N 36°49' W 076°17'0 0.0
2018-Feb-13 02:30N 36°49' W 076°17'0 0.0
2018-Feb-13 02:00N 36°49' W 076°17'0 0.0
2018-Feb-13 01:30N 36°49' W 076°17'0 0.0
2018-Feb-13 01:00N 36°49' W 076°17'0 0.0
2018-Feb-13 00:30N 36°49' W 076°17'0 0.0
2018-Feb-12 23:59N 36°49' W 076°17'0 0.0
2018-Feb-12 23:30N 36°49' W 076°17'0 0.0
2018-Feb-12 23:00N 36°49' W 076°17'0 0.0
2018-Feb-12 22:30N 36°49' W 076°17'0 0.0
2018-Feb-12 22:00N 36°49' W 076°17'0 0.0
2018-Feb-12 21:30N 36°49' W 076°17'0 0.0
2018-Feb-12 21:00N 36°49' W 076°17'0 0.0
2018-Feb-12 20:30N 36°49' W 076°17'0 0.0
2018-Feb-12 20:00N 36°49' W 076°17'0 0.0
2018-Feb-12 19:30N 36°49' W 076°17'0 0.0
2018-Feb-12 19:00N 36°49' W 076°17'0 0.0
2018-Feb-12 18:30N 36°49' W 076°17'0 0.0
2018-Feb-12 18:00N 36°49' W 076°17'0 0.0
2018-Feb-12 17:30N 36°49' W 076°17'0 0.0
2018-Feb-12 17:00N 36°49' W 076°17'0 0.0
2018-Feb-12 16:30N 36°49' W 076°17'0 0.0
2018-Feb-12 16:00N 36°49' W 076°17'0 0.0
2018-Feb-12 15:30N 36°49' W 076°17'0 0.0
2018-Feb-12 15:00N 36°49' W 076°17'0 0.0
2018-Feb-12 14:30N 36°49' W 076°17'0 0.0
2018-Feb-12 14:00N 36°49' W 076°17'0 0.0
2018-Feb-12 13:28N 36°49' W 076°17'0 0.0
2018-Feb-12 12:59N 36°49' W 076°17'0 0.0
2018-Feb-12 12:30N 36°49' W 076°17'0 0.0
2018-Feb-12 12:00N 36°49' W 076°17'0 0.0
2018-Feb-12 11:30N 36°49' W 076°17'0 0.0
2018-Feb-12 11:00N 36°49' W 076°17'0 0.0
2018-Feb-12 10:30N 36°49' W 076°17'0 0.0
2018-Feb-12 10:00N 36°49' W 076°17'0 0.0
2018-Feb-12 09:30N 36°49' W 076°17'0 0.0
2018-Feb-12 09:01N 36°49' W 076°17'0 0.0
2018-Feb-12 08:30N 36°49' W 076°17'0 0.0
2018-Feb-12 08:00N 36°49' W 076°17'0 0.0
2018-Feb-12 07:30N 36°49' W 076°17'0 0.0
2018-Feb-12 07:00N 36°49' W 076°17'0 0.0
2018-Feb-12 06:30N 36°49' W 076°17'0 0.0
2018-Feb-12 06:00N 36°49' W 076°17'0 0.0
2018-Feb-12 05:30N 36°49' W 076°17'0 0.0
2018-Feb-12 05:00N 36°49' W 076°17'0 0.0
2018-Feb-12 04:30N 36°49' W 076°17'0 0.0
2018-Feb-12 04:00N 36°49' W 076°17'0 0.0
2018-Feb-12 03:30N 36°49' W 076°17'0 0.0
2018-Feb-12 03:01N 36°49' W 076°17'0 0.0
2018-Feb-12 02:30N 36°49' W 076°17'0 0.0
2018-Feb-12 02:00N 36°49' W 076°17'0 0.0
2018-Feb-12 01:30N 36°49' W 076°17'0 0.0
2018-Feb-12 01:00N 36°49' W 076°17'2 2.7
2018-Feb-12 00:26N 36°50' W 076°16'0 0.0
2018-Feb-11 20:23N 36°50' W 076°16'3 6.6
2018-Feb-11 19:57N 36°52' W 076°19'3 4.3
2018-Feb-11 19:12N 36°55' W 076°20'1 2.0
2018-Feb-11 18:57N 36°54' W 076°20'0 0.2
2018-Feb-11 18:30N 36°54' W 076°20'3 5.2
2018-Feb-11 17:52N 36°51' W 076°19'2 2.0
2018-Feb-11 16:47N 36°50' W 076°16'0 0.3
2018-Feb-11 16:30N 36°50' W 076°16'0 0.0
2018-Feb-11 00:15N 36°50' W 076°16'0 0.3
2018-Feb-10 23:31N 36°50' W 076°16'0 4.3
2018-Feb-10 23:28N 36°50' W 076°16'1 0.8
2018-Feb-10 22:46N 36°50' W 076°17'0 0.2
2018-Feb-10 22:26N 36°50' W 076°17'2 3.6
2018-Feb-10 22:00N 36°49' W 076°17'2 4.8
2018-Feb-10 21:30N 36°47' W 076°18'1 1.1
2018-Feb-10 21:00N 36°46' W 076°18'0 0.0
2018-Feb-10 20:30N 36°46' W 076°18'0 0.1
2018-Feb-10 20:00N 36°46' W 076°18'0 0.0
2018-Feb-10 19:30N 36°46' W 076°18'0 0.0
2018-Feb-10 19:00N 36°46' W 076°18'0 0.0
2018-Feb-10 18:30N 36°46' W 076°18'0 0.0
2018-Feb-10 18:00N 36°46' W 076°18'0 0.0
2018-Feb-10 17:30N 36°46' W 076°18'0 0.0
2018-Feb-10 17:00N 36°46' W 076°18'0 0.0
2018-Feb-10 16:30N 36°46' W 076°18'0 0.0
2018-Feb-10 16:00N 36°46' W 076°18'0 0.0
2018-Feb-10 15:30N 36°46' W 076°18'0 0.0
2018-Feb-10 15:00N 36°46' W 076°18'0 0.0
2018-Feb-10 14:30N 36°46' W 076°18'0 0.0
2018-Feb-10 14:00N 36°46' W 076°18'0 0.0
2018-Feb-10 13:30N 36°46' W 076°18'0 0.0
2018-Feb-10 13:00N 36°46' W 076°18'0 0.0
2018-Feb-10 12:30N 36°46' W 076°18'0 0.7
2018-Feb-10 12:00N 36°46' W 076°18'0 0.7
2018-Feb-10 11:30N 36°46' W 076°18'0 0.2
2018-Feb-10 11:00N 36°46' W 076°18'1 1.1
2018-Feb-10 10:30N 36°47' W 076°18'2 3.6
2018-Feb-10 10:00N 36°48' W 076°17'3 5.4
2018-Feb-10 09:29N 36°51' W 076°18'5 5.6
2018-Feb-10 08:37N 36°56' W 076°20'8 0.2
2018-Feb-08 20:00N 36°48' W 076°17'2 1.5
2018-Feb-08 18:30N 36°46' W 076°18'0 0.0
2018-Feb-08 18:00N 36°46' W 076°18'0 0.0
2018-Feb-08 17:30N 36°46' W 076°18'0 0.0
2018-Feb-08 17:00N 36°46' W 076°18'0 0.0
2018-Feb-08 16:30N 36°46' W 076°18'0 0.0
2018-Feb-08 16:00N 36°46' W 076°18'0 0.0
2018-Feb-08 15:30N 36°46' W 076°18'0 0.0
2018-Feb-08 15:00N 36°46' W 076°18'0 0.0
2018-Feb-08 14:30N 36°46' W 076°18'0 0.0
2018-Feb-08 14:00N 36°46' W 076°18'0 0.0
2018-Feb-08 13:30N 36°46' W 076°18'0 0.0
2018-Feb-08 13:00N 36°46' W 076°18'0 0.0
2018-Feb-08 12:30N 36°46' W 076°18'0 0.0
2018-Feb-08 12:00N 36°46' W 076°18'0 0.0
2018-Feb-08 11:30N 36°46' W 076°18'0 0.0
2018-Feb-08 11:00N 36°46' W 076°18'0 0.2
2018-Feb-08 10:00N 36°46' W 076°18'1 2.3
2018-Feb-08 09:30N 36°47' W 076°18'2 4.2
2018-Feb-08 09:00N 36°49' W 076°17'  

Dump ship's entire track history